sensor_id;sensor_type;location;lat;lon;timestamp;temperature;humidity
20829;DHT22;10575;50.124;8.582;2023-07-13T14:21:32;29.80;38.90
20829;DHT22;10575;50.124;8.582;2023-07-13T14:23:57;28.60;43.10
20829;DHT22;10575;50.124;8.582;2023-07-13T14:26:25;28.70;42.70
20829;DHT22;10575;50.124;8.582;2023-07-13T14:28:56;28.60;42.90
20829;DHT22;10575;50.124;8.582;2023-07-13T14:31:23;28.50;44.00
20829;DHT22;10575;50.124;8.582;2023-07-13T14:33:49;28.60;43.90
20829;DHT22;10575;50.124;8.582;2023-07-13T14:36:21;28.80;43.30
20829;DHT22;10575;50.124;8.582;2023-07-13T14:38:48;28.90;43.80
20829;DHT22;10575;50.124;8.582;2023-07-13T14:41:15;28.90;43.50
20829;DHT22;10575;50.124;8.582;2023-07-13T14:43:40;29.00;42.80
20829;DHT22;10575;50.124;8.582;2023-07-13T14:46:26;28.60;43.20
20829;DHT22;10575;50.124;8.582;2023-07-13T14:48:55;28.50;43.20
20829;DHT22;10575;50.124;8.582;2023-07-13T14:51:25;28.50;44.00
20829;DHT22;10575;50.124;8.582;2023-07-13T14:53:50;28.40;44.60
20829;DHT22;10575;50.124;8.582;2023-07-13T14:56:16;28.60;42.90
20829;DHT22;10575;50.124;8.582;2023-07-13T14:58:42;28.40;43.70
20829;DHT22;10575;50.124;8.582;2023-07-13T15:01:17;28.50;44.10
20829;DHT22;10575;50.124;8.582;2023-07-13T15:03:45;28.60;43.90
20829;DHT22;10575;50.124;8.582;2023-07-13T15:06:12;28.90;42.80
20829;DHT22;10575;50.124;8.582;2023-07-13T15:08:38;28.60;43.10
20829;DHT22;10575;50.124;8.582;2023-07-13T15:11:07;28.60;42.80
20829;DHT22;10575;50.124;8.582;2023-07-13T15:13:32;28.40;43.30
20829;DHT22;10575;50.124;8.582;2023-07-13T15:15:59;28.30;44.30
20829;DHT22;10575;50.124;8.582;2023-07-13T15:18:25;28.40;43.00
20829;DHT22;10575;50.124;8.582;2023-07-13T15:20:51;28.20;44.80
20829;DHT22;10575;50.124;8.582;2023-07-13T15:23:21;28.10;44.70
20829;DHT22;10575;50.124;8.582;2023-07-13T15:25:47;28.00;45.00
20829;DHT22;10575;50.124;8.582;2023-07-13T15:28:13;28.10;43.80
20829;DHT22;10575;50.124;8.582;2023-07-13T15:30:45;28.20;43.80
20829;DHT22;10575;50.124;8.582;2023-07-13T15:33:29;28.40;43.20
20829;DHT22;10575;50.124;8.582;2023-07-13T15:35:55;28.60;43.30
20829;DHT22;10575;50.124;8.582;2023-07-13T15:38:24;28.30;42.80
20829;DHT22;10575;50.124;8.582;2023-07-13T15:40:51;28.30;43.70
20829;DHT22;10575;50.124;8.582;2023-07-13T15:43:18;28.50;42.30
20829;DHT22;10575;50.124;8.582;2023-07-13T15:45:45;28.60;42.70
20829;DHT22;10575;50.124;8.582;2023-07-13T15:48:20;28.40;42.30
20829;DHT22;10575;50.124;8.582;2023-07-13T15:50:52;28.20;43.30
20829;DHT22;10575;50.124;8.582;2023-07-13T15:53:29;28.00;43.60
20829;DHT22;10575;50.124;8.582;2023-07-13T15:55:55;28.10;42.70
20829;DHT22;10575;50.124;8.582;2023-07-13T15:58:21;28.10;43.30
20829;DHT22;10575;50.124;8.582;2023-07-13T16:00:47;27.90;43.10
20829;DHT22;10575;50.124;8.582;2023-07-13T16:03:16;27.80;44.10
20829;DHT22;10575;50.124;8.582;2023-07-13T16:05:42;27.80;44.60
20829;DHT22;10575;50.124;8.582;2023-07-13T16:08:27;27.80;44.00
20829;DHT22;10575;50.124;8.582;2023-07-13T16:10:53;28.00;43.60
20829;DHT22;10575;50.124;8.582;2023-07-13T16:13:20;28.20;42.50
20829;DHT22;10575;50.124;8.582;2023-07-13T16:15:46;28.10;43.50
20829;DHT22;10575;50.124;8.582;2023-07-13T16:18:13;28.20;42.60
20829;DHT22;10575;50.124;8.582;2023-07-13T16:20:42;28.00;42.70
20829;DHT22;10575;50.124;8.582;2023-07-13T16:23:09;27.80;44.40
20829;DHT22;10575;50.124;8.582;2023-07-13T16:25:37;27.70;44.80
20829;DHT22;10575;50.124;8.582;2023-07-13T16:28:02;27.50;44.10
20829;DHT22;10575;50.124;8.582;2023-07-13T16:30:30;27.60;45.00
20829;DHT22;10575;50.124;8.582;2023-07-13T16:32:58;27.70;44.50
20829;DHT22;10575;50.124;8.582;2023-07-13T16:35:31;27.50;45.10
20829;DHT22;10575;50.124;8.582;2023-07-13T16:38:02;27.50;43.70
20829;DHT22;10575;50.124;8.582;2023-07-13T16:40:31;27.50;44.40
20829;DHT22;10575;50.124;8.582;2023-07-13T16:42:58;27.70;43.60
20829;DHT22;10575;50.124;8.582;2023-07-13T16:45:27;27.70;44.20
20829;DHT22;10575;50.124;8.582;2023-07-13T16:47:59;27.50;43.80
20829;DHT22;10575;50.124;8.582;2023-07-13T16:50:31;27.40;44.10
20829;DHT22;10575;50.124;8.582;2023-07-13T16:52:57;27.50;43.30
20829;DHT22;10575;50.124;8.582;2023-07-13T16:55:24;27.40;43.00
20829;DHT22;10575;50.124;8.582;2023-07-13T16:57:57;27.30;43.40
20829;DHT22;10575;50.124;8.582;2023-07-13T17:00:31;27.00;44.50
20829;DHT22;10575;50.124;8.582;2023-07-13T17:03:02;26.70;44.60
20829;DHT22;10575;50.124;8.582;2023-07-13T17:05:42;26.70;45.20
20829;DHT22;10575;50.124;8.582;2023-07-13T17:08:17;26.80;45.10
20829;DHT22;10575;50.124;8.582;2023-07-13T17:10:49;26.80;44.80
20829;DHT22;10575;50.124;8.582;2023-07-13T17:13:17;26.70;45.20
20829;DHT22;10575;50.124;8.582;2023-07-13T17:15:46;26.60;45.30
20829;DHT22;10575;50.124;8.582;2023-07-13T17:18:13;26.70;45.10
20829;DHT22;10575;50.124;8.582;2023-07-13T17:20:42;26.50;44.90
20829;DHT22;10575;50.124;8.582;2023-07-13T17:23:37;26.40;45.80
20829;DHT22;10575;50.124;8.582;2023-07-13T17:26:04;26.30;46.20
20829;DHT22;10575;50.124;8.582;2023-07-13T17:28:30;26.40;46.80
20829;DHT22;10575;50.124;8.582;2023-07-13T17:30:58;26.40;46.40
20829;DHT22;10575;50.124;8.582;2023-07-13T17:33:30;26.30;46.40
20829;DHT22;10575;50.124;8.582;2023-07-13T17:35:58;26.40;46.30
20829;DHT22;10575;50.124;8.582;2023-07-13T17:41:06;26.20;47.00
20829;DHT22;10575;50.124;8.582;2023-07-13T17:43:34;26.20;47.20
20829;DHT22;10575;50.124;8.582;2023-07-13T17:45:59;26.10;46.70
20829;DHT22;10575;50.124;8.582;2023-07-13T17:48:26;26.10;47.00
20829;DHT22;10575;50.124;8.582;2023-07-13T17:50:53;26.10;47.10
20829;DHT22;10575;50.124;8.582;2023-07-13T17:53:21;26.00;47.10
20829;DHT22;10575;50.124;8.582;2023-07-13T17:55:48;26.00;47.20
20829;DHT22;10575;50.124;8.582;2023-07-13T17:58:15;25.80;47.30
20829;DHT22;10575;50.124;8.582;2023-07-13T18:00:42;25.70;47.80
20829;DHT22;10575;50.124;8.582;2023-07-13T18:03:14;25.70;47.60
20829;DHT22;10575;50.124;8.582;2023-07-13T18:05:41;25.70;47.50
20829;DHT22;10575;50.124;8.582;2023-07-13T18:08:23;25.70;47.60
20829;DHT22;10575;50.124;8.582;2023-07-13T18:10:49;25.60;47.90
20829;DHT22;10575;50.124;8.582;2023-07-13T18:13:16;25.60;48.00
20829;DHT22;10575;50.124;8.582;2023-07-13T18:15:42;25.60;48.40
20829;DHT22;10575;50.124;8.582;2023-07-13T18:18:11;25.50;48.90
20829;DHT22;10575;50.124;8.582;2023-07-13T18:20:38;25.50;48.90
20829;DHT22;10575;50.124;8.582;2023-07-13T18:23:18;25.40;49.50
20829;DHT22;10575;50.124;8.582;2023-07-13T18:25:45;25.40;49.80
20829;DHT22;10575;50.124;8.582;2023-07-13T18:28:14;25.40;49.80
20829;DHT22;10575;50.124;8.582;2023-07-13T18:30:43;25.60;49.50
20829;DHT22;10575;50.124;8.582;2023-07-13T18:33:18;25.50;49.70
20829;DHT22;10575;50.124;8.582;2023-07-13T18:35:45;25.20;50.10
20829;DHT22;10575;50.124;8.582;2023-07-13T18:38:17;25.10;50.40
20829;DHT22;10575;50.124;8.582;2023-07-13T18:40:43;25.10;50.60
20829;DHT22;10575;50.124;8.582;2023-07-13T18:43:09;25.10;50.70
20829;DHT22;10575;50.124;8.582;2023-07-13T18:45:34;25.20;50.40
20829;DHT22;10575;50.124;8.582;2023-07-13T18:48:00;25.30;50.50
20829;DHT22;10575;50.124;8.582;2023-07-13T18:50:33;25.30;50.70
20829;DHT22;10575;50.124;8.582;2023-07-13T18:53:01;25.30;50.90
20829;DHT22;10575;50.124;8.582;2023-07-13T18:55:26;25.30;51.50
20829;DHT22;10575;50.124;8.582;2023-07-13T18:57:52;25.30;50.90
20829;DHT22;10575;50.124;8.582;2023-07-13T19:00:23;25.00;51.50
20829;DHT22;10575;50.124;8.582;2023-07-13T19:02:52;24.90;51.80
20829;DHT22;10575;50.124;8.582;2023-07-13T19:05:20;24.90;51.80
20829;DHT22;10575;50.124;8.582;2023-07-13T19:07:46;24.80;51.80
20829;DHT22;10575;50.124;8.582;2023-07-13T19:10:15;24.60;52.70
20829;DHT22;10575;50.124;8.582;2023-07-13T19:12:44;24.50;52.80
20829;DHT22;10575;50.124;8.582;2023-07-13T19:15:22;24.60;53.10
20829;DHT22;10575;50.124;8.582;2023-07-13T19:17:50;24.50;53.50
20829;DHT22;10575;50.124;8.582;2023-07-13T19:20:17;24.40;53.90
20829;DHT22;10575;50.124;8.582;2023-07-13T19:22:54;24.30;54.70
20829;DHT22;10575;50.124;8.582;2023-07-13T19:25:21;24.10;55.20
20829;DHT22;10575;50.124;8.582;2023-07-13T19:27:48;24.10;56.00
20829;DHT22;10575;50.124;8.582;2023-07-13T19:30:15;24.10;56.10
20829;DHT22;10575;50.124;8.582;2023-07-13T19:32:41;24.00;56.40
20829;DHT22;10575;50.124;8.582;2023-07-13T19:35:08;24.00;55.80
20829;DHT22;10575;50.124;8.582;2023-07-13T19:37:34;24.00;56.20
20829;DHT22;10575;50.124;8.582;2023-07-13T19:40:03;24.10;56.30
20829;DHT22;10575;50.124;8.582;2023-07-13T19:42:31;24.10;56.30
20829;DHT22;10575;50.124;8.582;2023-07-13T19:44:58;24.20;56.50
20829;DHT22;10575;50.124;8.582;2023-07-13T19:47:24;24.20;56.50
20829;DHT22;10575;50.124;8.582;2023-07-13T19:49:51;24.10;56.60
20829;DHT22;10575;50.124;8.582;2023-07-13T19:52:20;24.10;57.20
20829;DHT22;10575;50.124;8.582;2023-07-13T19:54:51;24.10;57.70
20829;DHT22;10575;50.124;8.582;2023-07-13T19:57:19;24.00;58.20
20829;DHT22;10575;50.124;8.582;2023-07-13T19:59:45;23.90;58.60
20829;DHT22;10575;50.124;8.582;2023-07-13T20:02:17;23.70;59.30
20829;DHT22;10575;50.124;8.582;2023-07-13T20:04:43;23.60;59.50
20829;DHT22;10575;50.124;8.582;2023-07-13T20:07:21;23.50;60.20
20829;DHT22;10575;50.124;8.582;2023-07-13T20:09:48;23.40;60.00
20829;DHT22;10575;50.124;8.582;2023-07-13T20:12:17;23.30;59.60
20829;DHT22;10575;50.124;8.582;2023-07-13T20:14:44;23.20;58.50
20829;DHT22;10575;50.124;8.582;2023-07-13T20:17:31;23.20;58.10
20829;DHT22;10575;50.124;8.582;2023-07-13T20:19:59;23.20;58.50
20829;DHT22;10575;50.124;8.582;2023-07-13T20:22:25;23.20;59.10
20829;DHT22;10575;50.124;8.582;2023-07-13T20:24:50;23.20;59.30
20829;DHT22;10575;50.124;8.582;2023-07-13T20:27:16;23.30;59.30
20829;DHT22;10575;50.124;8.582;2023-07-13T20:29:45;23.30;60.00
20829;DHT22;10575;50.124;8.582;2023-07-13T20:32:11;23.30;60.00
20829;DHT22;10575;50.124;8.582;2023-07-13T20:34:38;23.30;60.40
20829;DHT22;10575;50.124;8.582;2023-07-13T20:39:45;23.30;60.90
20829;DHT22;10575;50.124;8.582;2023-07-13T20:42:11;23.20;61.20
20829;DHT22;10575;50.124;8.582;2023-07-13T20:44:37;23.00;62.20
20829;DHT22;10575;50.124;8.582;2023-07-13T20:47:02;23.00;62.90
20829;DHT22;10575;50.124;8.582;2023-07-13T20:49:28;22.90;63.10
20829;DHT22;10575;50.124;8.582;2023-07-13T20:51:56;22.80;63.40
20829;DHT22;10575;50.124;8.582;2023-07-13T20:54:23;22.80;64.10
20829;DHT22;10575;50.124;8.582;2023-07-13T20:56:49;22.80;63.40
20829;DHT22;10575;50.124;8.582;2023-07-13T20:59:14;22.80;64.70
20829;DHT22;10575;50.124;8.582;2023-07-13T21:01:40;22.70;64.30
20829;DHT22;10575;50.124;8.582;2023-07-13T21:04:10;22.60;64.70
20829;DHT22;10575;50.124;8.582;2023-07-13T21:06:36;22.60;65.20
20829;DHT22;10575;50.124;8.582;2023-07-13T21:09:05;22.60;65.60
20829;DHT22;10575;50.124;8.582;2023-07-13T21:11:34;22.60;65.60
20829;DHT22;10575;50.124;8.582;2023-07-13T21:13:59;22.60;65.40
20829;DHT22;10575;50.124;8.582;2023-07-13T21:16:27;22.50;65.40
20829;DHT22;10575;50.124;8.582;2023-07-13T21:18:53;22.50;65.20
20829;DHT22;10575;50.124;8.582;2023-07-13T21:21:22;22.60;65.80
20829;DHT22;10575;50.124;8.582;2023-07-13T21:23:49;22.60;65.40
20829;DHT22;10575;50.124;8.582;2023-07-13T21:26:15;22.70;65.20
20829;DHT22;10575;50.124;8.582;2023-07-13T21:28:43;22.70;65.20
20829;DHT22;10575;50.124;8.582;2023-07-13T21:33:45;22.70;65.10
20829;DHT22;10575;50.124;8.582;2023-07-13T21:36:11;22.60;65.80
20829;DHT22;10575;50.124;8.582;2023-07-13T21:38:38;22.50;66.30
20829;DHT22;10575;50.124;8.582;2023-07-13T21:41:31;22.30;67.00
20829;DHT22;10575;50.124;8.582;2023-07-13T21:43:58;22.20;68.80
20829;DHT22;10575;50.124;8.582;2023-07-13T21:46:27;22.10;69.10
20829;DHT22;10575;50.124;8.582;2023-07-13T21:48:53;22.10;69.10
20829;DHT22;10575;50.124;8.582;2023-07-13T21:51:21;21.90;70.40
20829;DHT22;10575;50.124;8.582;2023-07-13T21:53:48;21.80;72.20
20829;DHT22;10575;50.124;8.582;2023-07-13T21:56:14;21.80;72.80
20829;DHT22;10575;50.124;8.582;2023-07-13T21:58:40;21.70;72.60
20829;DHT22;10575;50.124;8.582;2023-07-13T22:01:20;21.70;72.60
20829;DHT22;10575;50.124;8.582;2023-07-13T22:03:50;21.70;73.00
20829;DHT22;10575;50.124;8.582;2023-07-13T22:06:23;21.70;72.50
20829;DHT22;10575;50.124;8.582;2023-07-13T22:08:49;21.70;73.60
20829;DHT22;10575;50.124;8.582;2023-07-13T22:11:20;21.60;73.30
20829;DHT22;10575;50.124;8.582;2023-07-13T22:13:46;21.50;73.60
20829;DHT22;10575;50.124;8.582;2023-07-13T22:16:16;21.40;74.10
20829;DHT22;10575;50.124;8.582;2023-07-13T22:18:42;21.40;76.50
20829;DHT22;10575;50.124;8.582;2023-07-13T22:21:08;21.30;77.10
20829;DHT22;10575;50.124;8.582;2023-07-13T22:23:36;21.30;77.10
20829;DHT22;10575;50.124;8.582;2023-07-13T22:26:16;21.20;76.90
20829;DHT22;10575;50.124;8.582;2023-07-13T22:28:44;21.20;77.80
20829;DHT22;10575;50.124;8.582;2023-07-13T22:31:09;21.10;76.50
20829;DHT22;10575;50.124;8.582;2023-07-13T22:33:35;21.00;77.30
20829;DHT22;10575;50.124;8.582;2023-07-13T22:36:01;21.00;76.60
20829;DHT22;10575;50.124;8.582;2023-07-13T22:38:30;20.90;76.90
20829;DHT22;10575;50.124;8.582;2023-07-13T22:40:55;20.90;75.90
20829;DHT22;10575;50.124;8.582;2023-07-13T22:43:24;20.90;74.90
20829;DHT22;10575;50.124;8.582;2023-07-13T22:45:53;21.00;74.90
20829;DHT22;10575;50.124;8.582;2023-07-13T22:49:15;21.00;75.40
20829;DHT22;10575;50.124;8.582;2023-07-13T22:51:18;20.90;77.40
20829;DHT22;10575;50.124;8.582;2023-07-13T22:53:44;20.80;78.20
20829;DHT22;10575;50.124;8.582;2023-07-13T22:56:11;20.60;81.30
20829;DHT22;10575;50.124;8.582;2023-07-13T22:58:38;20.50;81.20
20829;DHT22;10575;50.124;8.582;2023-07-13T23:01:13;20.50;81.50
20829;DHT22;10575;50.124;8.582;2023-07-13T23:03:40;20.50;79.30
20829;DHT22;10575;50.124;8.582;2023-07-13T23:06:05;20.70;79.80
20829;DHT22;10575;50.124;8.582;2023-07-13T23:08:36;20.70;81.20
20829;DHT22;10575;50.124;8.582;2023-07-13T23:11:01;20.70;80.60
20829;DHT22;10575;50.124;8.582;2023-07-13T23:13:28;20.70;81.20
20829;DHT22;10575;50.124;8.582;2023-07-13T23:15:53;20.70;83.50
20829;DHT22;10575;50.124;8.582;2023-07-13T23:18:20;20.70;81.70
20829;DHT22;10575;50.124;8.582;2023-07-13T23:20:46;20.70;82.20
20829;DHT22;10575;50.124;8.582;2023-07-13T23:23:14;20.60;82.10
20829;DHT22;10575;50.124;8.582;2023-07-13T23:25:40;20.70;81.70
20829;DHT22;10575;50.124;8.582;2023-07-13T23:28:09;20.70;81.80
20829;DHT22;10575;50.124;8.582;2023-07-13T23:30:35;20.60;81.30
20829;DHT22;10575;50.124;8.582;2023-07-13T23:33:11;20.30;85.00
20829;DHT22;10575;50.124;8.582;2023-07-13T23:35:39;20.30;86.90
20829;DHT22;10575;50.124;8.582;2023-07-13T23:38:09;20.40;86.00
20829;DHT22;10575;50.124;8.582;2023-07-13T23:40:35;20.30;86.30
20829;DHT22;10575;50.124;8.582;2023-07-13T23:43:01;20.30;87.10
20829;DHT22;10575;50.124;8.582;2023-07-13T23:45:29;20.30;87.40
20829;DHT22;10575;50.124;8.582;2023-07-13T23:47:56;20.30;87.10
20829;DHT22;10575;50.124;8.582;2023-07-13T23:50:25;20.30;86.10
20829;DHT22;10575;50.124;8.582;2023-07-13T23:52:51;20.40;85.20
20829;DHT22;10575;50.124;8.582;2023-07-13T23:55:20;20.50;84.80
20829;DHT22;10575;50.124;8.582;2023-07-13T23:57:47;20.40;86.00
